sensor_id;sensor_type;location;lat;lon;timestamp;P1;durP1;ratioP1;P2;durP2;ratioP2
1258;SDS011;619;51.472;6.628;2023-03-16T00:00:04;4.73;;;3.80;;
1258;SDS011;619;51.472;6.628;2023-03-16T00:02:33;4.73;;;4.23;;
1258;SDS011;619;51.472;6.628;2023-03-16T00:04:59;6.10;;;4.10;;
1258;SDS011;619;51.472;6.628;2023-03-16T00:07:25;4.50;;;4.10;;
1258;SDS011;619;51.472;6.628;2023-03-16T00:09:51;7.50;;;5.10;;
1258;SDS011;619;51.472;6.628;2023-03-16T00:12:18;7.37;;;3.90;;
1258;SDS011;619;51.472;6.628;2023-03-16T00:14:46;5.43;;;3.60;;
1258;SDS011;619;51.472;6.628;2023-03-16T00:17:13;7.63;;;3.60;;
1258;SDS011;619;51.472;6.628;2023-03-16T00:19:46;6.27;;;4.70;;
1258;SDS011;619;51.472;6.628;2023-03-16T00:22:13;7.07;;;4.33;;
1258;SDS011;619;51.472;6.628;2023-03-16T00:24:42;7.87;;;3.90;;
1258;SDS011;619;51.472;6.628;2023-03-16T00:27:09;6.03;;;3.80;;
1258;SDS011;619;51.472;6.628;2023-03-16T00:29:42;7.00;;;3.80;;
1258;SDS011;619;51.472;6.628;2023-03-16T00:32:33;4.27;;;3.80;;
1258;SDS011;619;51.472;6.628;2023-03-16T00:34:57;7.50;;;3.50;;
1258;SDS011;619;51.472;6.628;2023-03-16T00:37:24;6.43;;;4.30;;
1258;SDS011;619;51.472;6.628;2023-03-16T00:39:51;6.10;;;4.23;;
1258;SDS011;619;51.472;6.628;2023-03-16T00:42:20;5.83;;;3.90;;
1258;SDS011;619;51.472;6.628;2023-03-16T00:44:51;5.67;;;4.03;;
1258;SDS011;619;51.472;6.628;2023-03-16T00:47:21;6.87;;;4.53;;
1258;SDS011;619;51.472;6.628;2023-03-16T00:49:47;5.00;;;3.70;;
1258;SDS011;619;51.472;6.628;2023-03-16T00:52:13;10.93;;;5.70;;
1258;SDS011;619;51.472;6.628;2023-03-16T00:54:40;10.37;;;5.93;;
1258;SDS011;619;51.472;6.628;2023-03-16T00:57:07;7.63;;;5.30;;
1258;SDS011;619;51.472;6.628;2023-03-16T00:59:33;9.47;;;5.53;;
1258;SDS011;619;51.472;6.628;2023-03-16T01:02:02;5.90;;;4.40;;
1258;SDS011;619;51.472;6.628;2023-03-16T01:04:28;6.10;;;4.00;;
1258;SDS011;619;51.472;6.628;2023-03-16T01:06:54;5.83;;;4.67;;
1258;SDS011;619;51.472;6.628;2023-03-16T01:09:20;6.07;;;4.53;;
1258;SDS011;619;51.472;6.628;2023-03-16T01:11:46;4.63;;;3.90;;
1258;SDS011;619;51.472;6.628;2023-03-16T01:14:19;4.47;;;3.80;;
1258;SDS011;619;51.472;6.628;2023-03-16T01:16:46;6.77;;;4.13;;
1258;SDS011;619;51.472;6.628;2023-03-16T01:19:12;7.00;;;4.90;;
1258;SDS011;619;51.472;6.628;2023-03-16T01:21:39;4.93;;;4.13;;
1258;SDS011;619;51.472;6.628;2023-03-16T01:24:06;5.17;;;3.70;;
1258;SDS011;619;51.472;6.628;2023-03-16T01:26:35;4.83;;;4.30;;
1258;SDS011;619;51.472;6.628;2023-03-16T01:29:01;7.87;;;4.60;;
1258;SDS011;619;51.472;6.628;2023-03-16T01:31:29;9.57;;;4.43;;
1258;SDS011;619;51.472;6.628;2023-03-16T01:33:55;4.70;;;3.80;;
1258;SDS011;619;51.472;6.628;2023-03-16T01:36:27;7.70;;;3.77;;
1258;SDS011;619;51.472;6.628;2023-03-16T01:38:53;7.23;;;4.50;;
1258;SDS011;619;51.472;6.628;2023-03-16T01:41:19;7.90;;;4.33;;
1258;SDS011;619;51.472;6.628;2023-03-16T01:43:46;5.43;;;3.57;;
1258;SDS011;619;51.472;6.628;2023-03-16T01:46:13;4.40;;;3.70;;
1258;SDS011;619;51.472;6.628;2023-03-16T01:53:54;4.23;;;3.83;;
1258;SDS011;619;51.472;6.628;2023-03-16T01:56:22;5.40;;;4.17;;
1258;SDS011;619;51.472;6.628;2023-03-16T01:58:49;5.40;;;3.97;;
1258;SDS011;619;51.472;6.628;2023-03-16T02:01:17;5.50;;;4.40;;
1258;SDS011;619;51.472;6.628;2023-03-16T02:03:45;6.47;;;4.90;;
1258;SDS011;619;51.472;6.628;2023-03-16T02:06:14;12.57;;;5.40;;
1258;SDS011;619;51.472;6.628;2023-03-16T02:08:42;4.83;;;4.07;;
1258;SDS011;619;51.472;6.628;2023-03-16T02:11:11;4.40;;;4.00;;
1258;SDS011;619;51.472;6.628;2023-03-16T02:13:42;7.80;;;4.70;;
1258;SDS011;619;51.472;6.628;2023-03-16T02:16:08;7.57;;;4.77;;
1258;SDS011;619;51.472;6.628;2023-03-16T02:18:36;7.40;;;5.40;;
1258;SDS011;619;51.472;6.628;2023-03-16T02:21:09;6.77;;;4.00;;
1258;SDS011;619;51.472;6.628;2023-03-16T02:23:40;6.90;;;4.77;;
1258;SDS011;619;51.472;6.628;2023-03-16T02:31:27;4.40;;;3.97;;
1258;SDS011;619;51.472;6.628;2023-03-16T02:33:53;4.00;;;3.60;;
1258;SDS011;619;51.472;6.628;2023-03-16T02:36:21;3.77;;;3.37;;
1258;SDS011;619;51.472;6.628;2023-03-16T02:38:49;5.47;;;4.07;;
1258;SDS011;619;51.472;6.628;2023-03-16T02:41:18;5.13;;;3.63;;
1258;SDS011;619;51.472;6.628;2023-03-16T02:44:30;4.10;;;3.70;;
1258;SDS011;619;51.472;6.628;2023-03-16T02:46:39;4.97;;;3.60;;
1258;SDS011;619;51.472;6.628;2023-03-16T02:51:43;6.53;;;3.27;;
1258;SDS011;619;51.472;6.628;2023-03-16T02:54:12;9.30;;;3.73;;
1258;SDS011;619;51.472;6.628;2023-03-16T02:56:38;7.83;;;4.07;;
1258;SDS011;619;51.472;6.628;2023-03-16T02:59:05;3.80;;;3.40;;
1258;SDS011;619;51.472;6.628;2023-03-16T03:01:31;3.60;;;3.20;;
1258;SDS011;619;51.472;6.628;2023-03-16T03:03:59;4.03;;;3.17;;
1258;SDS011;619;51.472;6.628;2023-03-16T03:06:25;4.77;;;3.10;;
1258;SDS011;619;51.472;6.628;2023-03-16T03:08:54;4.70;;;3.70;;
1258;SDS011;619;51.472;6.628;2023-03-16T03:11:20;5.93;;;3.40;;
1258;SDS011;619;51.472;6.628;2023-03-16T03:13:46;5.63;;;3.57;;
1258;SDS011;619;51.472;6.628;2023-03-16T03:16:14;4.23;;;2.93;;
1258;SDS011;619;51.472;6.628;2023-03-16T03:18:42;6.03;;;4.03;;
1258;SDS011;619;51.472;6.628;2023-03-16T03:21:09;3.50;;;3.00;;
1258;SDS011;619;51.472;6.628;2023-03-16T03:23:37;4.23;;;3.20;;
1258;SDS011;619;51.472;6.628;2023-03-16T03:26:03;4.10;;;3.47;;
1258;SDS011;619;51.472;6.628;2023-03-16T03:28:34;3.20;;;2.80;;
1258;SDS011;619;51.472;6.628;2023-03-16T03:31:02;5.93;;;3.40;;
1258;SDS011;619;51.472;6.628;2023-03-16T03:33:28;3.83;;;3.13;;
1258;SDS011;619;51.472;6.628;2023-03-16T03:35:55;2.77;;;2.50;;
1258;SDS011;619;51.472;6.628;2023-03-16T03:38:24;4.10;;;3.13;;
1258;SDS011;619;51.472;6.628;2023-03-16T03:40:50;3.00;;;2.70;;
1258;SDS011;619;51.472;6.628;2023-03-16T03:43:17;3.53;;;2.90;;
1258;SDS011;619;51.472;6.628;2023-03-16T03:45:45;3.60;;;2.73;;
1258;SDS011;619;51.472;6.628;2023-03-16T03:48:11;5.43;;;2.83;;
1258;SDS011;619;51.472;6.628;2023-03-16T03:50:37;5.23;;;2.97;;
1258;SDS011;619;51.472;6.628;2023-03-16T03:53:04;6.17;;;3.40;;
1258;SDS011;619;51.472;6.628;2023-03-16T03:55:31;4.10;;;3.30;;
1258;SDS011;619;51.472;6.628;2023-03-16T03:57:57;5.33;;;2.80;;
1258;SDS011;619;51.472;6.628;2023-03-16T04:00:23;2.70;;;2.50;;
1258;SDS011;619;51.472;6.628;2023-03-16T04:02:49;3.80;;;2.87;;
1258;SDS011;619;51.472;6.628;2023-03-16T04:05:15;5.10;;;3.57;;
1258;SDS011;619;51.472;6.628;2023-03-16T04:07:41;4.10;;;2.63;;
1258;SDS011;619;51.472;6.628;2023-03-16T04:10:09;4.63;;;3.13;;
1258;SDS011;619;51.472;6.628;2023-03-16T04:12:36;3.80;;;3.50;;
1258;SDS011;619;51.472;6.628;2023-03-16T04:15:02;6.40;;;3.37;;
1258;SDS011;619;51.472;6.628;2023-03-16T04:17:28;4.07;;;3.30;;
1258;SDS011;619;51.472;6.628;2023-03-16T04:19:54;4.07;;;2.93;;
1258;SDS011;619;51.472;6.628;2023-03-16T04:22:20;3.80;;;2.60;;
1258;SDS011;619;51.472;6.628;2023-03-16T04:24:49;4.83;;;2.97;;
1258;SDS011;619;51.472;6.628;2023-03-16T04:27:17;4.10;;;2.70;;
1258;SDS011;619;51.472;6.628;2023-03-16T04:29:48;5.80;;;3.33;;
1258;SDS011;619;51.472;6.628;2023-03-16T04:32:17;4.00;;;2.97;;
1258;SDS011;619;51.472;6.628;2023-03-16T04:34:43;3.30;;;2.80;;
1258;SDS011;619;51.472;6.628;2023-03-16T04:37:12;3.17;;;2.53;;
1258;SDS011;619;51.472;6.628;2023-03-16T04:39:38;4.60;;;3.03;;
1258;SDS011;619;51.472;6.628;2023-03-16T04:42:04;5.13;;;2.60;;
1258;SDS011;619;51.472;6.628;2023-03-16T04:44:32;3.40;;;3.07;;
1258;SDS011;619;51.472;6.628;2023-03-16T04:47:07;8.63;;;3.40;;
1258;SDS011;619;51.472;6.628;2023-03-16T04:49:33;4.53;;;2.83;;
1258;SDS011;619;51.472;6.628;2023-03-16T04:51:59;7.37;;;4.43;;
1258;SDS011;619;51.472;6.628;2023-03-16T04:54:26;4.57;;;2.60;;
1258;SDS011;619;51.472;6.628;2023-03-16T04:56:52;3.80;;;2.70;;
1258;SDS011;619;51.472;6.628;2023-03-16T04:59:18;3.10;;;2.60;;
1258;SDS011;619;51.472;6.628;2023-03-16T05:01:46;8.93;;;3.30;;
1258;SDS011;619;51.472;6.628;2023-03-16T05:04:15;9.30;;;2.57;;
1258;SDS011;619;51.472;6.628;2023-03-16T05:06:41;3.93;;;2.73;;
1258;SDS011;619;51.472;6.628;2023-03-16T05:09:09;5.07;;;3.00;;
1258;SDS011;619;51.472;6.628;2023-03-16T05:11:37;5.53;;;3.80;;
1258;SDS011;619;51.472;6.628;2023-03-16T05:14:08;4.13;;;3.57;;
1258;SDS011;619;51.472;6.628;2023-03-16T05:16:34;6.90;;;3.30;;
1258;SDS011;619;51.472;6.628;2023-03-16T05:19:00;4.20;;;2.90;;
1258;SDS011;619;51.472;6.628;2023-03-16T05:21:26;8.73;;;3.90;;
1258;SDS011;619;51.472;6.628;2023-03-16T05:23:56;5.50;;;2.83;;
1258;SDS011;619;51.472;6.628;2023-03-16T05:26:24;7.33;;;3.27;;
1258;SDS011;619;51.472;6.628;2023-03-16T05:28:50;4.40;;;3.20;;
1258;SDS011;619;51.472;6.628;2023-03-16T05:31:18;4.93;;;3.50;;
1258;SDS011;619;51.472;6.628;2023-03-16T05:33:44;4.03;;;3.60;;
1258;SDS011;619;51.472;6.628;2023-03-16T05:36:10;5.53;;;3.50;;
1258;SDS011;619;51.472;6.628;2023-03-16T05:38:39;5.27;;;3.00;;
1258;SDS011;619;51.472;6.628;2023-03-16T05:41:06;4.80;;;3.50;;
1258;SDS011;619;51.472;6.628;2023-03-16T05:43:32;6.03;;;3.77;;
1258;SDS011;619;51.472;6.628;2023-03-16T05:46:00;4.90;;;3.07;;
1258;SDS011;619;51.472;6.628;2023-03-16T05:48:26;4.03;;;2.93;;
1258;SDS011;619;51.472;6.628;2023-03-16T05:50:52;4.53;;;3.20;;
1258;SDS011;619;51.472;6.628;2023-03-16T05:53:18;5.73;;;3.63;;
1258;SDS011;619;51.472;6.628;2023-03-16T05:55:50;4.63;;;3.33;;
1258;SDS011;619;51.472;6.628;2023-03-16T05:58:16;3.93;;;3.20;;
1258;SDS011;619;51.472;6.628;2023-03-16T06:00:42;5.87;;;3.47;;
1258;SDS011;619;51.472;6.628;2023-03-16T06:03:11;4.43;;;3.80;;
1258;SDS011;619;51.472;6.628;2023-03-16T06:05:41;4.87;;;3.77;;
1258;SDS011;619;51.472;6.628;2023-03-16T06:08:07;5.67;;;4.23;;
1258;SDS011;619;51.472;6.628;2023-03-16T06:10:34;5.07;;;4.17;;
1258;SDS011;619;51.472;6.628;2023-03-16T06:13:00;4.60;;;4.10;;
1258;SDS011;619;51.472;6.628;2023-03-16T06:15:28;6.10;;;3.90;;
1258;SDS011;619;51.472;6.628;2023-03-16T06:17:54;10.17;;;4.43;;
1258;SDS011;619;51.472;6.628;2023-03-16T06:20:23;5.47;;;3.70;;
1258;SDS011;619;51.472;6.628;2023-03-16T06:22:51;7.23;;;5.03;;
1258;SDS011;619;51.472;6.628;2023-03-16T06:25:19;8.70;;;4.00;;
1258;SDS011;619;51.472;6.628;2023-03-16T06:27:45;6.03;;;4.20;;
1258;SDS011;619;51.472;6.628;2023-03-16T06:30:13;7.10;;;4.07;;
1258;SDS011;619;51.472;6.628;2023-03-16T06:32:42;5.90;;;4.80;;
1258;SDS011;619;51.472;6.628;2023-03-16T06:35:09;5.83;;;4.27;;
1258;SDS011;619;51.472;6.628;2023-03-16T06:37:38;7.60;;;5.77;;
1258;SDS011;619;51.472;6.628;2023-03-16T06:40:05;7.33;;;4.60;;
1258;SDS011;619;51.472;6.628;2023-03-16T06:42:33;5.83;;;4.90;;
1258;SDS011;619;51.472;6.628;2023-03-16T06:45:00;7.03;;;4.67;;
1258;SDS011;619;51.472;6.628;2023-03-16T06:47:26;6.87;;;4.43;;
1258;SDS011;619;51.472;6.628;2023-03-16T06:49:52;7.10;;;4.77;;
1258;SDS011;619;51.472;6.628;2023-03-16T06:52:19;5.03;;;4.50;;
1258;SDS011;619;51.472;6.628;2023-03-16T06:54:45;6.20;;;5.43;;
1258;SDS011;619;51.472;6.628;2023-03-16T06:57:11;5.70;;;5.10;;
1258;SDS011;619;51.472;6.628;2023-03-16T06:59:39;6.50;;;5.10;;
1258;SDS011;619;51.472;6.628;2023-03-16T07:02:05;7.43;;;6.60;;
1258;SDS011;619;51.472;6.628;2023-03-16T07:04:31;9.77;;;4.93;;
1258;SDS011;619;51.472;6.628;2023-03-16T07:06:58;6.97;;;4.60;;
1258;SDS011;619;51.472;6.628;2023-03-16T07:09:24;6.13;;;5.30;;
1258;SDS011;619;51.472;6.628;2023-03-16T07:11:50;6.63;;;5.67;;
1258;SDS011;619;51.472;6.628;2023-03-16T07:14:17;5.80;;;5.20;;
1258;SDS011;619;51.472;6.628;2023-03-16T07:16:44;6.43;;;4.40;;
1258;SDS011;619;51.472;6.628;2023-03-16T07:19:12;6.73;;;5.27;;
1258;SDS011;619;51.472;6.628;2023-03-16T07:21:38;6.40;;;4.73;;
1258;SDS011;619;51.472;6.628;2023-03-16T07:24:05;6.00;;;5.07;;
1258;SDS011;619;51.472;6.628;2023-03-16T07:26:33;7.00;;;5.10;;
1258;SDS011;619;51.472;6.628;2023-03-16T07:29:02;5.37;;;4.47;;
1258;SDS011;619;51.472;6.628;2023-03-16T07:31:31;6.90;;;4.57;;
1258;SDS011;619;51.472;6.628;2023-03-16T07:34:00;5.10;;;4.53;;
1258;SDS011;619;51.472;6.628;2023-03-16T07:36:26;7.40;;;4.87;;
1258;SDS011;619;51.472;6.628;2023-03-16T07:38:52;7.73;;;5.03;;
1258;SDS011;619;51.472;6.628;2023-03-16T07:41:19;7.53;;;4.50;;
1258;SDS011;619;51.472;6.628;2023-03-16T07:43:47;6.23;;;5.03;;
1258;SDS011;619;51.472;6.628;2023-03-16T07:46:16;9.20;;;5.60;;
1258;SDS011;619;51.472;6.628;2023-03-16T07:48:42;8.03;;;5.50;;
1258;SDS011;619;51.472;6.628;2023-03-16T07:51:14;8.73;;;5.70;;
1258;SDS011;619;51.472;6.628;2023-03-16T07:53:42;7.37;;;5.03;;
1258;SDS011;619;51.472;6.628;2023-03-16T07:56:10;5.47;;;4.90;;
1258;SDS011;619;51.472;6.628;2023-03-16T07:58:41;7.63;;;5.10;;
1258;SDS011;619;51.472;6.628;2023-03-16T08:01:07;6.30;;;5.07;;
1258;SDS011;619;51.472;6.628;2023-03-16T08:03:35;5.90;;;5.27;;
1258;SDS011;619;51.472;6.628;2023-03-16T08:06:02;6.03;;;4.87;;
1258;SDS011;619;51.472;6.628;2023-03-16T08:08:30;5.27;;;4.77;;
1258;SDS011;619;51.472;6.628;2023-03-16T08:10:57;6.60;;;5.53;;
1258;SDS011;619;51.472;6.628;2023-03-16T08:13:25;5.23;;;4.73;;
1258;SDS011;619;51.472;6.628;2023-03-16T08:15:52;8.63;;;7.63;;
1258;SDS011;619;51.472;6.628;2023-03-16T08:18:25;6.13;;;5.17;;
1258;SDS011;619;51.472;6.628;2023-03-16T08:20:51;6.90;;;5.50;;
1258;SDS011;619;51.472;6.628;2023-03-16T08:23:20;10.87;;;5.30;;
1258;SDS011;619;51.472;6.628;2023-03-16T08:25:50;7.10;;;5.27;;
1258;SDS011;619;51.472;6.628;2023-03-16T08:28:16;7.90;;;5.93;;
1258;SDS011;619;51.472;6.628;2023-03-16T08:30:49;7.03;;;4.60;;
1258;SDS011;619;51.472;6.628;2023-03-16T08:33:15;6.60;;;5.40;;
1258;SDS011;619;51.472;6.628;2023-03-16T08:35:47;5.20;;;4.60;;
1258;SDS011;619;51.472;6.628;2023-03-16T08:38:13;5.43;;;4.80;;
1258;SDS011;619;51.472;6.628;2023-03-16T08:40:43;8.30;;;5.83;;
1258;SDS011;619;51.472;6.628;2023-03-16T08:43:15;6.10;;;5.40;;
1258;SDS011;619;51.472;6.628;2023-03-16T08:45:46;6.20;;;5.03;;
1258;SDS011;619;51.472;6.628;2023-03-16T08:48:12;5.20;;;4.57;;
1258;SDS011;619;51.472;6.628;2023-03-16T08:50:42;6.80;;;5.53;;
1258;SDS011;619;51.472;6.628;2023-03-16T08:53:08;8.50;;;5.37;;
1258;SDS011;619;51.472;6.628;2023-03-16T08:55:37;8.67;;;5.30;;
1258;SDS011;619;51.472;6.628;2023-03-16T08:58:08;6.10;;;5.50;;
1258;SDS011;619;51.472;6.628;2023-03-16T09:00:34;8.30;;;6.17;;
1258;SDS011;619;51.472;6.628;2023-03-16T09:03:01;6.40;;;5.17;;
1258;SDS011;619;51.472;6.628;2023-03-16T09:05:29;6.23;;;5.57;;
1258;SDS011;619;51.472;6.628;2023-03-16T09:07:57;6.83;;;5.37;;
1258;SDS011;619;51.472;6.628;2023-03-16T09:10:24;8.90;;;5.83;;
1258;SDS011;619;51.472;6.628;2023-03-16T09:12:51;7.03;;;5.90;;
1258;SDS011;619;51.472;6.628;2023-03-16T09:15:18;7.27;;;6.40;;
1258;SDS011;619;51.472;6.628;2023-03-16T09:17:45;6.70;;;6.00;;
1258;SDS011;619;51.472;6.628;2023-03-16T09:20:15;6.87;;;5.93;;
1258;SDS011;619;51.472;6.628;2023-03-16T09:22:42;7.30;;;5.37;;
1258;SDS011;619;51.472;6.628;2023-03-16T09:25:12;8.00;;;5.50;;
1258;SDS011;619;51.472;6.628;2023-03-16T09:27:38;6.90;;;5.90;;
1258;SDS011;619;51.472;6.628;2023-03-16T09:30:05;7.90;;;6.37;;
1258;SDS011;619;51.472;6.628;2023-03-16T09:32:31;6.10;;;5.50;;
1258;SDS011;619;51.472;6.628;2023-03-16T09:34:57;8.83;;;6.30;;
1258;SDS011;619;51.472;6.628;2023-03-16T09:37:23;7.70;;;6.07;;
1258;SDS011;619;51.472;6.628;2023-03-16T09:39:50;6.27;;;5.63;;
1258;SDS011;619;51.472;6.628;2023-03-16T09:42:18;6.23;;;5.63;;
1258;SDS011;619;51.472;6.628;2023-03-16T09:47:16;8.13;;;5.77;;
1258;SDS011;619;51.472;6.628;2023-03-16T09:49:49;6.53;;;5.80;;
1258;SDS011;619;51.472;6.628;2023-03-16T09:54:50;6.40;;;5.13;;
1258;SDS011;619;51.472;6.628;2023-03-16T09:59:49;7.00;;;5.37;;
1258;SDS011;619;51.472;6.628;2023-03-16T10:05:07;6.30;;;5.03;;
1258;SDS011;619;51.472;6.628;2023-03-16T10:07:40;8.30;;;6.37;;
1258;SDS011;619;51.472;6.628;2023-03-16T10:12:37;10.03;;;7.90;;
1258;SDS011;619;51.472;6.628;2023-03-16T10:15:09;10.07;;;7.83;;
1258;SDS011;619;51.472;6.628;2023-03-16T10:20:19;10.13;;;7.63;;
1258;SDS011;619;51.472;6.628;2023-03-16T10:22:46;8.20;;;7.13;;
1258;SDS011;619;51.472;6.628;2023-03-16T10:27:53;13.87;;;8.07;;
1258;SDS011;619;51.472;6.628;2023-03-16T10:30:34;10.90;;;6.63;;
1258;SDS011;619;51.472;6.628;2023-03-16T10:40:55;6.27;;;5.33;;
1258;SDS011;619;51.472;6.628;2023-03-16T10:43:24;7.53;;;6.23;;
1258;SDS011;619;51.472;6.628;2023-03-16T10:45:50;7.23;;;6.00;;
1258;SDS011;619;51.472;6.628;2023-03-16T10:48:19;5.67;;;5.00;;
1258;SDS011;619;51.472;6.628;2023-03-16T10:50:50;6.33;;;5.37;;
1258;SDS011;619;51.472;6.628;2023-03-16T10:53:25;6.30;;;5.50;;
1258;SDS011;619;51.472;6.628;2023-03-16T10:55:56;10.00;;;6.67;;
1258;SDS011;619;51.472;6.628;2023-03-16T10:58:23;8.87;;;6.53;;
1258;SDS011;619;51.472;6.628;2023-03-16T11:00:49;8.23;;;4.60;;
1258;SDS011;619;51.472;6.628;2023-03-16T11:05:56;6.77;;;4.60;;
1258;SDS011;619;51.472;6.628;2023-03-16T11:08:24;5.70;;;4.43;;
1258;SDS011;619;51.472;6.628;2023-03-16T11:10:55;14.37;;;7.43;;
1258;SDS011;619;51.472;6.628;2023-03-16T11:13:30;11.20;;;6.80;;
1258;SDS011;619;51.472;6.628;2023-03-16T11:16:01;5.53;;;4.40;;
1258;SDS011;619;51.472;6.628;2023-03-16T11:20:57;6.23;;;4.13;;
1258;SDS011;619;51.472;6.628;2023-03-16T11:23:46;4.87;;;4.20;;
1258;SDS011;619;51.472;6.628;2023-03-16T11:26:28;7.83;;;4.67;;
1258;SDS011;619;51.472;6.628;2023-03-16T11:31:55;5.33;;;4.67;;
1258;SDS011;619;51.472;6.628;2023-03-16T11:34:28;7.23;;;4.93;;
1258;SDS011;619;51.472;6.628;2023-03-16T11:36:56;4.73;;;3.93;;
1258;SDS011;619;51.472;6.628;2023-03-16T11:48:10;3.93;;;3.53;;
1258;SDS011;619;51.472;6.628;2023-03-16T11:50:51;8.57;;;3.90;;
1258;SDS011;619;51.472;6.628;2023-03-16T11:53:31;6.03;;;4.53;;
1258;SDS011;619;51.472;6.628;2023-03-16T11:59:02;6.73;;;4.03;;
1258;SDS011;619;51.472;6.628;2023-03-16T12:02:06;5.07;;;3.40;;
1258;SDS011;619;51.472;6.628;2023-03-16T12:10:06;6.60;;;4.23;;
1258;SDS011;619;51.472;6.628;2023-03-16T12:12:50;5.43;;;4.00;;
1258;SDS011;619;51.472;6.628;2023-03-16T12:18:03;4.70;;;3.57;;
1258;SDS011;619;51.472;6.628;2023-03-16T12:20:47;5.03;;;4.23;;
1258;SDS011;619;51.472;6.628;2023-03-16T12:26:01;5.23;;;3.93;;
1258;SDS011;619;51.472;6.628;2023-03-16T12:28:27;4.67;;;3.97;;
1258;SDS011;619;51.472;6.628;2023-03-16T12:33:38;3.20;;;2.90;;
1258;SDS011;619;51.472;6.628;2023-03-16T12:42:29;4.23;;;3.53;;
1258;SDS011;619;51.472;6.628;2023-03-16T12:50:16;5.10;;;3.63;;
1258;SDS011;619;51.472;6.628;2023-03-16T12:52:46;7.03;;;3.77;;
1258;SDS011;619;51.472;6.628;2023-03-16T12:57:47;7.73;;;5.30;;
1258;SDS011;619;51.472;6.628;2023-03-16T13:00:16;4.20;;;3.27;;
1258;SDS011;619;51.472;6.628;2023-03-16T13:02:48;6.30;;;3.67;;
1258;SDS011;619;51.472;6.628;2023-03-16T13:05:26;4.53;;;3.60;;
1258;SDS011;619;51.472;6.628;2023-03-16T13:08:03;4.87;;;3.97;;
1258;SDS011;619;51.472;6.628;2023-03-16T13:10:41;6.03;;;3.60;;
1258;SDS011;619;51.472;6.628;2023-03-16T13:13:22;5.33;;;4.33;;
1258;SDS011;619;51.472;6.628;2023-03-16T13:15:50;4.23;;;3.53;;
1258;SDS011;619;51.472;6.628;2023-03-16T13:18:43;5.50;;;3.90;;
1258;SDS011;619;51.472;6.628;2023-03-16T13:21:14;5.17;;;3.10;;
1258;SDS011;619;51.472;6.628;2023-03-16T13:23:55;4.10;;;2.90;;
1258;SDS011;619;51.472;6.628;2023-03-16T13:26:39;4.53;;;3.43;;
1258;SDS011;619;51.472;6.628;2023-03-16T13:29:30;4.47;;;3.90;;
1258;SDS011;619;51.472;6.628;2023-03-16T13:31:58;4.30;;;3.90;;
1258;SDS011;619;51.472;6.628;2023-03-16T13:34:31;10.53;;;4.73;;
1258;SDS011;619;51.472;6.628;2023-03-16T13:37:01;7.03;;;3.53;;
1258;SDS011;619;51.472;6.628;2023-03-16T13:39:36;6.10;;;3.80;;
1258;SDS011;619;51.472;6.628;2023-03-16T13:44:32;5.30;;;3.60;;
1258;SDS011;619;51.472;6.628;2023-03-16T13:47:03;4.07;;;3.30;;
1258;SDS011;619;51.472;6.628;2023-03-16T13:49:30;4.37;;;3.30;;
1258;SDS011;619;51.472;6.628;2023-03-16T13:51:57;6.93;;;3.47;;
1258;SDS011;619;51.472;6.628;2023-03-16T13:54:26;4.17;;;3.03;;
1258;SDS011;619;51.472;6.628;2023-03-16T13:56:55;4.77;;;3.60;;
1258;SDS011;619;51.472;6.628;2023-03-16T13:59:22;2.80;;;2.33;;
1258;SDS011;619;51.472;6.628;2023-03-16T14:01:55;4.53;;;2.80;;
1258;SDS011;619;51.472;6.628;2023-03-16T14:04:22;2.60;;;2.37;;
1258;SDS011;619;51.472;6.628;2023-03-16T14:06:57;4.00;;;2.90;;
1258;SDS011;619;51.472;6.628;2023-03-16T14:09:25;2.93;;;2.40;;
1258;SDS011;619;51.472;6.628;2023-03-16T14:11:55;3.40;;;2.63;;
1258;SDS011;619;51.472;6.628;2023-03-16T14:14:36;5.40;;;3.60;;
1258;SDS011;619;51.472;6.628;2023-03-16T14:17:10;5.00;;;3.00;;
1258;SDS011;619;51.472;6.628;2023-03-16T14:19:39;5.10;;;3.13;;
1258;SDS011;619;51.472;6.628;2023-03-16T14:22:21;4.07;;;3.67;;
1258;SDS011;619;51.472;6.628;2023-03-16T14:24:56;2.93;;;2.63;;
1258;SDS011;619;51.472;6.628;2023-03-16T14:27:25;3.13;;;2.30;;
1258;SDS011;619;51.472;6.628;2023-03-16T14:30:18;2.97;;;2.50;;
1258;SDS011;619;51.472;6.628;2023-03-16T14:33:20;3.93;;;3.30;;
1258;SDS011;619;51.472;6.628;2023-03-16T14:35:53;6.30;;;4.00;;
1258;SDS011;619;51.472;6.628;2023-03-16T14:38:41;8.50;;;6.20;;
1258;SDS011;619;51.472;6.628;2023-03-16T14:43:44;7.13;;;5.13;;
1258;SDS011;619;51.472;6.628;2023-03-16T14:46:12;7.03;;;4.40;;
1258;SDS011;619;51.472;6.628;2023-03-16T14:48:41;4.63;;;3.30;;
1258;SDS011;619;51.472;6.628;2023-03-16T14:51:08;3.27;;;2.50;;
1258;SDS011;619;51.472;6.628;2023-03-16T14:53:37;2.73;;;2.17;;
1258;SDS011;619;51.472;6.628;2023-03-16T14:56:08;3.60;;;2.50;;
1258;SDS011;619;51.472;6.628;2023-03-16T14:58:37;3.43;;;2.93;;
1258;SDS011;619;51.472;6.628;2023-03-16T15:01:03;2.90;;;2.33;;
1258;SDS011;619;51.472;6.628;2023-03-16T15:03:32;4.97;;;2.03;;
1258;SDS011;619;51.472;6.628;2023-03-16T15:06:02;6.77;;;2.60;;
1258;SDS011;619;51.472;6.628;2023-03-16T15:08:30;2.97;;;2.07;;
1258;SDS011;619;51.472;6.628;2023-03-16T15:11:06;2.83;;;1.90;;
1258;SDS011;619;51.472;6.628;2023-03-16T15:13:33;2.57;;;2.00;;
1258;SDS011;619;51.472;6.628;2023-03-16T15:16:20;3.47;;;2.60;;
1258;SDS011;619;51.472;6.628;2023-03-16T15:18:48;5.23;;;2.30;;
1258;SDS011;619;51.472;6.628;2023-03-16T15:21:17;3.33;;;2.00;;
1258;SDS011;619;51.472;6.628;2023-03-16T15:23:46;2.60;;;2.40;;
1258;SDS011;619;51.472;6.628;2023-03-16T15:26:15;3.87;;;2.67;;
1258;SDS011;619;51.472;6.628;2023-03-16T15:28:46;3.20;;;1.97;;
1258;SDS011;619;51.472;6.628;2023-03-16T15:31:12;3.00;;;2.20;;
1258;SDS011;619;51.472;6.628;2023-03-16T15:33:38;3.00;;;2.20;;
1258;SDS011;619;51.472;6.628;2023-03-16T15:36:39;2.53;;;1.80;;
1258;SDS011;619;51.472;6.628;2023-03-16T15:38:58;3.00;;;1.83;;
1258;SDS011;619;51.472;6.628;2023-03-16T15:41:25;5.10;;;2.00;;
1258;SDS011;619;51.472;6.628;2023-03-16T15:43:54;3.13;;;2.17;;
1258;SDS011;619;51.472;6.628;2023-03-16T15:46:24;7.53;;;2.13;;
1258;SDS011;619;51.472;6.628;2023-03-16T15:48:51;3.53;;;2.13;;
1258;SDS011;619;51.472;6.628;2023-03-16T15:51:24;3.40;;;2.17;;
1258;SDS011;619;51.472;6.628;2023-03-16T15:53:58;6.07;;;2.60;;
1258;SDS011;619;51.472;6.628;2023-03-16T15:56:30;3.93;;;2.67;;
1258;SDS011;619;51.472;6.628;2023-03-16T15:58:59;4.10;;;2.63;;
1258;SDS011;619;51.472;6.628;2023-03-16T16:01:29;5.07;;;3.10;;
1258;SDS011;619;51.472;6.628;2023-03-16T16:03:58;4.23;;;2.07;;
1258;SDS011;619;51.472;6.628;2023-03-16T16:06:24;3.20;;;2.53;;
1258;SDS011;619;51.472;6.628;2023-03-16T16:08:52;3.40;;;2.50;;
1258;SDS011;619;51.472;6.628;2023-03-16T16:11:20;2.43;;;2.17;;
1258;SDS011;619;51.472;6.628;2023-03-16T16:13:48;3.90;;;2.40;;
1258;SDS011;619;51.472;6.628;2023-03-16T16:16:17;4.30;;;2.80;;
1258;SDS011;619;51.472;6.628;2023-03-16T16:18:44;3.43;;;2.50;;
1258;SDS011;619;51.472;6.628;2023-03-16T16:21:20;3.60;;;2.60;;
1258;SDS011;619;51.472;6.628;2023-03-16T16:23:48;3.43;;;2.60;;
1258;SDS011;619;51.472;6.628;2023-03-16T16:28:51;3.33;;;2.77;;
1258;SDS011;619;51.472;6.628;2023-03-16T16:31:20;5.27;;;2.30;;
1258;SDS011;619;51.472;6.628;2023-03-16T16:33:46;4.77;;;3.13;;
1258;SDS011;619;51.472;6.628;2023-03-16T16:36:13;6.03;;;2.97;;
1258;SDS011;619;51.472;6.628;2023-03-16T16:38:47;3.17;;;2.60;;
1258;SDS011;619;51.472;6.628;2023-03-16T16:41:25;3.20;;;2.60;;
1258;SDS011;619;51.472;6.628;2023-03-16T16:43:53;3.10;;;2.20;;
1258;SDS011;619;51.472;6.628;2023-03-16T16:46:22;4.00;;;2.80;;
1258;SDS011;619;51.472;6.628;2023-03-16T16:48:56;4.10;;;2.83;;
1258;SDS011;619;51.472;6.628;2023-03-16T16:51:26;3.47;;;3.00;;
1258;SDS011;619;51.472;6.628;2023-03-16T16:53:54;6.30;;;4.43;;
1258;SDS011;619;51.472;6.628;2023-03-16T16:56:30;10.10;;;6.90;;
1258;SDS011;619;51.472;6.628;2023-03-16T16:59:00;6.47;;;4.63;;
1258;SDS011;619;51.472;6.628;2023-03-16T17:01:36;8.83;;;5.07;;
1258;SDS011;619;51.472;6.628;2023-03-16T17:04:02;6.30;;;3.80;;
1258;SDS011;619;51.472;6.628;2023-03-16T17:06:27;4.83;;;3.60;;
1258;SDS011;619;51.472;6.628;2023-03-16T17:08:55;5.50;;;3.90;;
1258;SDS011;619;51.472;6.628;2023-03-16T17:11:22;3.83;;;3.27;;
1258;SDS011;619;51.472;6.628;2023-03-16T17:13:53;5.63;;;4.17;;
1258;SDS011;619;51.472;6.628;2023-03-16T17:16:21;6.03;;;4.33;;